Time;durP1;ratioP1;P1;durP2;ratioP2;P2;SDS_P1;SDS_P2;PMS_P1;PMS_P2;Temp;Humidity;BMP_temperature;BMP_pressure;BME280_temperature;BME280_humidity;BME280_pressure;Samples;Min_cycle;Max_cycle;Signal;HPM_P1;HPM_P2
2023/08/01 00:00:41;;;;;;;13.10;3.80;;;17.60;99.90;;;;;;5035675;28;20208;-86
2023/08/01 00:03:07;;;;;;;7.53;4.50;;;17.60;99.90;;;;;;5053740;28;20423;-87
2023/08/01 00:05:33;;;;;;;5.20;3.40;;;17.50;99.90;;;;;;5050844;28;20822;-88
2023/08/01 00:07:59;;;;;;;13.43;5.20;;;;;;;;;;5035690;28;20269;-87
2023/08/01 00:10:25;;;;;;;7.00;4.03;;;;;;;;;;5050256;28;20435;-88
2023/08/01 00:12:50;;;;;;;9.37;5.10;;;17.40;99.90;;;;;;5035790;28;20462;-87
2023/08/01 00:15:16;;;;;;;7.27;3.40;;;17.40;99.90;;;;;;5050473;28;20463;-87
2023/08/01 00:17:42;;;;;;;13.63;3.80;;;17.40;99.90;;;;;;5050580;28;20185;-87
2023/08/01 00:20:08;;;;;;;4.93;3.93;;;17.40;99.90;;;;;;5035221;28;20236;-88
2023/08/01 00:22:34;;;;;;;6.00;4.20;;;17.40;99.90;;;;;;5050785;28;20188;-86
2023/08/01 00:24:59;;;;;;;7.80;3.93;;;17.40;99.90;;;;;;5037015;28;20444;-87
2023/08/01 00:27:25;;;;;;;6.47;3.93;;;17.40;99.90;;;;;;5035096;28;20232;-88
2023/08/01 00:29:55;;;;;;;7.83;4.23;;;17.40;99.90;;;;;;5038828;28;20177;-88
2023/08/01 00:32:21;;;;;;;8.13;4.17;;;17.30;99.90;;;;;;5034078;28;20184;-87
2023/08/01 00:34:46;;;;;;;8.37;4.33;;;17.30;99.90;;;;;;5033658;28;21423;-87
2023/08/01 00:37:14;;;;;;;7.80;4.80;;;17.30;99.90;;;;;;5049002;28;20536;-87
2023/08/01 00:39:39;;;;;;;9.13;3.90;;;17.20;99.90;;;;;;5042240;28;20199;-88
2023/08/01 00:42:05;;;;;;;8.03;4.10;;;17.20;99.90;;;;;;5030950;28;20443;-87
2023/08/01 00:44:31;;;;;;;7.20;4.07;;;;;;;;;;5051329;28;20597;-86
2023/08/01 00:46:57;;;;;;;6.70;4.27;;;17.10;99.90;;;;;;5036415;28;20190;-88
2023/08/01 00:49:23;;;;;;;5.90;4.03;;;;;;;;;;5040123;28;20927;-89
2023/08/01 00:51:48;;;;;;;7.63;4.30;;;17.10;99.90;;;;;;5034664;28;20192;-88
2023/08/01 00:54:14;;;;;;;8.30;4.10;;;17.00;99.90;;;;;;5053503;28;20439;-88
2023/08/01 00:56:40;;;;;;;8.30;4.03;;;17.10;99.90;;;;;;5045475;28;20220;-87
2023/08/01 00:59:05;;;;;;;8.10;4.10;;;17.00;99.90;;;;;;5043063;28;20427;-88
2023/08/01 01:01:34;;;;;;;10.70;4.07;;;17.00;99.90;;;;;;5029616;28;20268;-88
2023/08/01 01:03:59;;;;;;;6.80;4.03;;;17.00;99.90;;;;;;5035138;28;20181;-87
2023/08/01 01:06:39;;;;;;;7.30;4.40;;;17.00;99.90;;;;;;5048026;28;20519;-87
2023/08/01 01:09:17;;;;;;;8.17;3.93;;;17.00;99.90;;;;;;5033364;28;20197;-87
2023/08/01 01:11:44;;;;;;;5.73;3.43;;;17.00;99.90;;;;;;5033480;28;20427;-87
2023/08/01 01:14:10;;;;;;;7.97;4.30;;;17.00;99.90;;;;;;5034674;28;21340;-87
2023/08/01 01:16:35;;;;;;;6.47;4.20;;;17.10;99.90;;;;;;5035417;28;20457;-87
2023/08/01 01:19:01;;;;;;;6.40;3.70;;;17.10;99.90;;;;;;5049962;28;20258;-87
2023/08/01 01:21:26;;;;;;;6.67;3.70;;;17.20;99.90;;;;;;5030070;28;20238;-86
2023/08/01 01:23:52;;;;;;;8.40;4.57;;;17.20;99.90;;;;;;5046893;28;20180;-85
2023/08/01 01:26:21;;;;;;;6.87;3.90;;;17.30;99.90;;;;;;5033132;28;20193;-86
2023/08/01 01:28:51;;;;;;;11.50;3.90;;;17.30;99.90;;;;;;5032042;28;20427;-88
2023/08/01 01:31:17;;;;;;;9.80;3.67;;;17.30;99.90;;;;;;5032912;28;20440;-88
2023/08/01 01:33:42;;;;;;;6.40;3.90;;;17.20;99.90;;;;;;5030857;28;20527;-89
2023/08/01 01:36:08;;;;;;;7.23;3.70;;;17.20;99.90;;;;;;5032322;28;20475;-88
2023/08/01 01:38:34;;;;;;;5.57;4.60;;;17.10;99.90;;;;;;5031569;28;20181;-89
2023/08/01 01:40:59;;;;;;;8.60;4.50;;;17.00;99.90;;;;;;5035629;28;20300;-88
2023/08/01 01:43:25;;;;;;;7.30;4.43;;;17.10;99.90;;;;;;5034402;28;20174;-88
2023/08/01 01:45:50;;;;;;;6.90;4.23;;;18.10;99.90;;;;;;5028447;28;20196;-88
2023/08/01 01:48:16;;;;;;;7.07;4.13;;;17.00;99.90;;;;;;5036092;28;20177;-88
2023/08/01 01:50:41;;;;;;;11.40;4.40;;;16.90;99.90;;;;;;5038891;28;20744;-88
2023/08/01 01:53:07;;;;;;;10.07;4.00;;;;;;;;;;5030693;28;20188;-88
2023/08/01 01:55:34;;;;;;;9.13;4.13;;;17.20;99.90;;;;;;5050307;28;20239;-89
2023/08/01 01:57:59;;;;;;;11.77;5.30;;;16.90;99.90;;;;;;5035733;28;20480;-89
2023/08/01 02:00:25;;;;;;;8.20;4.47;;;16.90;99.90;;;;;;5033678;23;21875;-79
2023/08/01 02:02:50;;;;;;;8.70;4.30;;;16.90;99.90;;;;;;5026979;28;20185;-82
2023/08/01 02:05:16;;;;;;;10.77;5.00;;;16.90;99.90;;;;;;5009065;28;22263;-80
2023/08/01 02:07:41;;;;;;;11.00;4.60;;;16.90;99.90;;;;;;5023552;28;20177;-81
2023/08/01 02:10:07;;;;;;;9.60;4.87;;;16.90;99.90;;;;;;5010408;28;20213;-83
2023/08/01 02:12:35;;;;;;;6.00;4.13;;;16.90;99.90;;;;;;5014895;28;20184;-81
2023/08/01 02:15:01;;;;;;;10.17;4.23;;;16.90;99.90;;;;;;5012868;28;20825;-81
2023/08/01 02:17:26;;;;;;;5.23;4.27;;;17.00;99.90;;;;;;5030118;28;20440;-83
2023/08/01 02:19:52;;;;;;;5.63;3.77;;;16.90;99.90;;;;;;5018286;28;20232;-82
2023/08/01 02:22:17;;;;;;;6.10;4.50;;;17.00;99.90;;;;;;5030908;28;20204;-83
2023/08/01 02:24:43;;;;;;;9.30;5.30;;;17.10;99.90;;;;;;5016701;28;20182;-83
2023/08/01 02:27:08;;;;;;;8.60;4.13;;;17.00;99.90;;;;;;5024893;28;20193;-83
2023/08/01 02:29:34;;;;;;;7.53;4.53;;;17.00;99.90;;;;;;5029387;28;20812;-79
2023/08/01 02:31:59;;;;;;;6.70;4.90;;;17.00;99.90;;;;;;5036282;28;20209;-83
2023/08/01 02:34:25;;;;;;;8.40;4.70;;;17.00;99.90;;;;;;5023611;28;20196;-81
2023/08/01 02:36:51;;;;;;;9.20;4.87;;;17.00;99.90;;;;;;5020672;28;20759;-81
2023/08/01 02:39:17;;;;;;;12.00;4.17;;;17.10;99.90;;;;;;5030893;28;20192;-81
2023/08/01 02:41:42;;;;;;;7.30;4.90;;;17.20;99.90;;;;;;5009012;28;21153;-83
2023/08/01 02:44:08;;;;;;;6.43;4.53;;;17.20;99.90;;;;;;5018171;28;20463;-83
2023/08/01 02:46:34;;;;;;;10.87;4.20;;;17.20;99.90;;;;;;5030569;28;20269;-82
2023/08/01 02:48:59;;;;;;;6.37;4.07;;;17.30;99.90;;;;;;5027537;28;20911;-84
2023/08/01 02:51:25;;;;;;;7.97;4.00;;;17.30;99.90;;;;;;5026188;28;20699;-84
2023/08/01 02:53:50;;;;;;;10.37;4.20;;;17.30;99.90;;;;;;5027297;28;20178;-84
2023/08/01 02:56:16;;;;;;;4.57;3.87;;;17.40;99.90;;;;;;5027009;28;20218;-80
2023/08/01 02:58:42;;;;;;;11.97;4.20;;;17.40;99.90;;;;;;5028466;28;20178;-83
2023/08/01 03:01:13;;;;;;;7.07;4.20;;;17.40;99.90;;;;;;5030706;28;20216;-81
2023/08/01 03:03:39;;;;;;;7.90;4.73;;;17.50;99.90;;;;;;5014876;28;20512;-82
2023/08/01 03:06:05;;;;;;;7.67;4.50;;;;;;;;;;5031517;28;20517;-81
2023/08/01 03:08:30;;;;;;;8.20;4.73;;;17.40;99.90;;;;;;5024272;28;21565;-84
2023/08/01 03:10:57;;;;;;;8.87;5.37;;;17.30;99.90;;;;;;5027492;28;20571;-81
2023/08/01 03:13:23;;;;;;;7.60;4.33;;;17.30;99.90;;;;;;5030567;28;20219;-82
2023/08/01 03:15:48;;;;;;;12.43;4.60;;;17.30;99.90;;;;;;5034748;28;20901;-80
2023/08/01 03:18:14;;;;;;;9.37;4.93;;;17.30;99.90;;;;;;5017797;28;20855;-82
2023/08/01 03:20:40;;;;;;;14.10;5.40;;;17.30;99.90;;;;;;5027270;28;20317;-83
2023/08/01 03:23:05;;;;;;;12.03;4.00;;;17.30;99.90;;;;;;5017616;28;20188;-80
2023/08/01 03:25:31;;;;;;;5.30;3.83;;;17.30;99.90;;;;;;5013528;28;20441;-79
2023/08/01 03:27:56;;;;;;;7.10;4.60;;;17.40;99.90;;;;;;5014555;28;20231;-81
2023/08/01 03:30:22;;;;;;;7.87;5.50;;;17.40;99.90;;;;;;5009826;28;20195;-80
2023/08/01 03:32:48;;;;;;;9.87;4.37;;;17.40;99.90;;;;;;5025758;28;20448;-82
2023/08/01 03:35:14;;;;;;;6.40;3.70;;;17.50;99.90;;;;;;5028603;28;20272;-79
2023/08/01 03:37:40;;;;;;;8.53;4.13;;;17.60;99.90;;;;;;5039001;28;20432;-85
2023/08/01 03:40:10;;;;;;;8.63;4.37;;;17.60;99.90;;;;;;5036725;28;20210;-82
2023/08/01 03:42:37;;;;;;;8.20;3.47;;;17.50;99.90;;;;;;5016917;28;20471;-82
2023/08/01 03:45:03;;;;;;;10.20;3.70;;;17.50;99.90;;;;;;5031158;28;20435;-82
2023/08/01 03:47:28;;;;;;;9.30;3.80;;;17.60;99.90;;;;;;5015817;28;20439;-83
2023/08/01 03:49:54;;;;;;;7.13;3.90;;;17.70;99.90;;;;;;5013166;28;20447;-83
2023/08/01 03:52:20;;;;;;;6.87;3.70;;;;;;;;;;5030381;28;20206;-80
2023/08/01 03:54:45;;;;;;;4.63;3.50;;;17.60;99.90;;;;;;5024914;28;20193;-82
2023/08/01 03:57:11;;;;;;;9.67;3.57;;;17.60;99.90;;;;;;5010753;28;20459;-81
2023/08/01 03:59:37;;;;;;;5.90;3.30;;;17.60;99.90;;;;;;5010088;28;20215;-82
2023/08/01 04:02:02;;;;;;;5.90;2.97;;;17.70;99.90;;;;;;5011883;28;20858;-82
2023/08/01 04:04:28;;;;;;;5.90;3.67;;;17.70;99.90;;;;;;5023631;28;20186;-80
2023/08/01 04:06:53;;;;;;;7.93;3.73;;;17.70;99.90;;;;;;5009268;28;20197;-86
2023/08/01 04:09:19;;;;;;;6.00;4.00;;;17.80;99.90;;;;;;5015636;28;20304;-82
2023/08/01 04:11:44;;;;;;;6.03;3.20;;;17.80;99.90;;;;;;5025860;28;20270;-81
2023/08/01 04:14:10;;;;;;;7.17;3.90;;;17.80;99.90;;;;;;5014544;28;20193;-82
2023/08/01 04:16:35;;;;;;;8.90;4.10;;;17.80;99.90;;;;;;5007233;28;20185;-84
2023/08/01 04:19:01;;;;;;;7.77;4.30;;;17.80;99.90;;;;;;5022445;28;20193;-82
2023/08/01 04:21:26;;;;;;;5.90;4.10;;;17.70;99.90;;;;;;5029033;28;20293;-85
2023/08/01 04:23:52;;;;;;;8.30;4.07;;;17.60;99.90;;;;;;5024723;28;20955;-80
2023/08/01 04:26:17;;;;;;;6.13;3.93;;;17.50;99.90;;;;;;5014489;28;20845;-82
2023/08/01 04:28:43;;;;;;;6.83;3.77;;;17.60;99.90;;;;;;5009890;28;20189;-83
2023/08/01 04:31:08;;;;;;;7.13;4.00;;;17.60;99.90;;;;;;5008784;28;20292;-82
2023/08/01 04:33:34;;;;;;;8.63;4.07;;;17.60;99.90;;;;;;5020264;28;20782;-81
2023/08/01 04:35:59;;;;;;;8.63;3.90;;;17.60;99.90;;;;;;5007376;28;20200;-82
2023/08/01 04:38:25;;;;;;;11.20;4.00;;;17.70;99.90;;;;;;5028160;28;21264;-83
2023/08/01 04:40:50;;;;;;;6.83;4.17;;;17.70;99.90;;;;;;5008202;28;20209;-82
2023/08/01 04:43:16;;;;;;;6.40;3.57;;;17.80;99.90;;;;;;5013813;28;20190;-83
2023/08/01 04:45:41;;;;;;;5.63;3.40;;;17.60;99.90;;;;;;5017528;28;20193;-84
2023/08/01 04:48:07;;;;;;;8.10;4.50;;;17.50;99.90;;;;;;5017476;28;20181;-82
2023/08/01 04:50:32;;;;;;;5.97;3.80;;;17.30;99.90;;;;;;5026037;28;20866;-81
2023/08/01 04:52:58;;;;;;;7.77;3.60;;;17.20;99.90;;;;;;5022712;28;20213;-81
2023/08/01 04:55:23;;;;;;;5.63;3.90;;;17.10;99.90;;;;;;5026821;28;20180;-80
2023/08/01 04:57:49;;;;;;;7.13;4.30;;;17.00;99.90;;;;;;5032766;28;20248;-82
2023/08/01 05:00:15;;;;;;;7.53;4.00;;;17.00;99.90;;;;;;5012674;28;20214;-80
2023/08/01 05:02:40;;;;;;;4.43;3.53;;;16.90;99.90;;;;;;5022981;28;20385;-81
2023/08/01 05:05:06;;;;;;;5.20;3.60;;;16.90;99.90;;;;;;5022288;28;20714;-81
2023/08/01 05:07:32;;;;;;;6.67;3.50;;;16.90;99.90;;;;;;5007557;28;20273;-81
2023/08/01 05:09:57;;;;;;;8.83;3.80;;;16.90;99.90;;;;;;5023324;28;20927;-81
2023/08/01 05:12:23;;;;;;;11.87;4.33;;;17.00;99.90;;;;;;5001233;28;20205;-81
2023/08/01 05:14:48;;;;;;;6.63;3.57;;;17.00;99.90;;;;;;5006898;28;20277;-82
2023/08/01 05:17:14;;;;;;;6.10;3.90;;;17.00;99.90;;;;;;5009399;28;20649;-81
2023/08/01 05:19:40;;;;;;;10.53;3.60;;;17.00;99.90;;;;;;5027581;28;20244;-84
2023/08/01 05:22:06;;;;;;;7.83;4.23;;;17.00;99.90;;;;;;5019893;28;20194;-81
2023/08/01 05:24:31;;;;;;;6.83;4.30;;;17.00;99.90;;;;;;5012046;28;20194;-81
2023/08/01 05:26:57;;;;;;;8.73;3.70;;;17.00;99.90;;;;;;5022379;28;20527;-81
2023/08/01 05:29:23;;;;;;;4.57;3.60;;;17.00;99.90;;;;;;5023383;28;20191;-79
2023/08/01 05:31:48;;;;;;;6.43;4.07;;;16.90;99.90;;;;;;5018442;28;20201;-80
2023/08/01 05:34:14;;;;;;;9.17;4.53;;;;;;;;;;5021537;28;21213;-84
2023/08/01 05:36:40;;;;;;;9.00;4.40;;;16.90;99.90;;;;;;5005443;28;20196;-81
2023/08/01 05:39:05;;;;;;;10.57;4.37;;;16.80;99.90;;;;;;5008429;28;21168;-81
2023/08/01 05:41:31;;;;;;;7.10;3.57;;;16.90;99.90;;;;;;5028301;28;20278;-84
2023/08/01 05:43:58;;;;;;;10.17;4.90;;;16.90;99.90;;;;;;5022630;28;20182;-82
2023/08/01 05:46:24;;;;;;;8.10;3.77;;;16.90;99.90;;;;;;5006605;28;20312;-82
2023/08/01 05:48:49;;;;;;;9.00;4.17;;;17.00;99.90;;;;;;5010320;28;20435;-80
2023/08/01 05:51:15;;;;;;;11.37;5.13;;;17.10;99.90;;;;;;5024041;28;20212;-80
2023/08/01 05:53:40;;;;;;;6.43;3.67;;;17.10;99.90;;;;;;5024183;28;20755;-81
2023/08/01 05:56:06;;;;;;;6.93;3.90;;;17.10;99.90;;;;;;5021471;28;20265;-80
2023/08/01 05:58:32;;;;;;;9.60;5.30;;;17.10;99.90;;;;;;5013431;28;20256;-81
2023/08/01 06:00:57;;;;;;;6.20;3.20;;;17.20;99.90;;;;;;5008594;28;20221;-84
2023/08/01 06:03:23;;;;;;;8.43;4.90;;;17.10;99.90;;;;;;5021613;28;20188;-84
2023/08/01 06:05:49;;;;;;;9.53;4.73;;;17.30;99.90;;;;;;5024622;28;20806;-83
2023/08/01 06:08:15;;;;;;;8.13;4.20;;;17.30;99.90;;;;;;5002576;28;20192;-83
2023/08/01 06:10:41;;;;;;;8.23;3.97;;;17.20;99.90;;;;;;5019773;28;20471;-82
2023/08/01 06:13:07;;;;;;;10.07;4.93;;;17.10;99.90;;;;;;5005284;28;20909;-83
2023/08/01 06:15:32;;;;;;;9.67;5.30;;;17.00;99.90;;;;;;5023432;28;20181;-81
2023/08/01 06:17:58;;;;;;;10.77;4.90;;;;;;;;;;5024669;28;20199;-84
2023/08/01 06:20:24;;;;;;;9.00;4.70;;;16.80;99.90;;;;;;5019786;28;20726;-79
2023/08/01 06:22:49;;;;;;;12.13;4.93;;;16.80;99.90;;;;;;5005637;28;20462;-79
2023/08/01 06:25:15;;;;;;;12.87;6.17;;;16.70;99.90;;;;;;5009096;28;20564;-82
2023/08/01 06:27:41;;;;;;;14.13;4.70;;;16.70;99.90;;;;;;5003092;28;20180;-81
2023/08/01 06:30:07;;;;;;;9.03;4.43;;;16.70;99.90;;;;;;5010417;28;20191;-81
2023/08/01 06:32:32;;;;;;;8.07;4.53;;;16.70;99.90;;;;;;5006974;28;20205;-85
2023/08/01 06:34:58;;;;;;;7.40;4.73;;;16.60;99.90;;;;;;5024365;28;20536;-81
2023/08/01 06:37:23;;;;;;;14.50;5.33;;;16.60;99.90;;;;;;5003306;28;20204;-82
2023/08/01 06:39:49;;;;;;;9.37;4.07;;;16.50;99.90;;;;;;5021132;28;20201;-81
2023/08/01 06:42:16;;;;;;;9.90;5.20;;;16.50;99.90;;;;;;5009166;28;20202;-79
2023/08/01 06:44:41;;;;;;;9.60;4.63;;;16.40;99.90;;;;;;5012863;28;20177;-78
2023/08/01 06:47:07;;;;;;;7.23;4.40;;;16.30;99.90;;;;;;5007514;28;20471;-80
2023/08/01 06:49:32;;;;;;;9.20;4.10;;;16.30;99.90;;;;;;5022440;28;20181;-79
2023/08/01 06:51:58;;;;;;;11.57;4.67;;;16.30;99.90;;;;;;5019624;28;20252;-84
2023/08/01 06:54:23;;;;;;;7.73;5.17;;;16.30;99.90;;;;;;5012292;28;20189;-81
2023/08/01 06:56:49;;;;;;;9.47;4.73;;;16.20;99.90;;;;;;5008377;28;20255;-80
2023/08/01 06:59:15;;;;;;;6.57;4.20;;;16.20;99.90;;;;;;5014793;28;20188;-82
2023/08/01 07:01:43;;;;;;;7.33;4.20;;;16.20;99.90;;;;;;5011765;28;20201;-81
2023/08/01 07:04:12;;;;;;;8.17;4.50;;;16.20;99.90;;;;;;5026893;28;20177;-81
2023/08/01 07:06:38;;;;;;;6.87;3.90;;;16.20;99.90;;;;;;5010103;28;20487;-82
2023/08/01 07:09:04;;;;;;;5.37;3.63;;;16.20;99.90;;;;;;5013262;28;20507;-80
2023/08/01 07:11:29;;;;;;;10.23;4.47;;;16.20;99.90;;;;;;5012374;28;20205;-82
2023/08/01 07:13:55;;;;;;;18.60;5.20;;;16.30;99.90;;;;;;5022701;28;20450;-80
2023/08/01 07:16:20;;;;;;;9.10;4.10;;;16.30;99.90;;;;;;5007197;28;20190;-81
2023/08/01 07:18:48;;;;;;;6.53;3.33;;;16.20;99.90;;;;;;5027534;28;21144;-83
2023/08/01 07:21:13;;;;;;;8.70;4.20;;;16.20;99.90;;;;;;5007713;28;20256;-82
2023/08/01 07:23:39;;;;;;;5.40;3.17;;;16.30;99.90;;;;;;5005946;28;20562;-83
2023/08/01 07:26:05;;;;;;;5.73;3.00;;;16.30;99.90;;;;;;5003721;28;20184;-83
2023/08/01 07:28:31;;;;;;;5.10;2.73;;;16.30;99.90;;;;;;5008050;28;20435;-82
2023/08/01 07:31:04;;;;;;;7.17;3.97;;;16.30;99.90;;;;;;5029441;28;20213;-81
2023/08/01 07:33:30;;;;;;;5.40;3.20;;;16.30;99.90;;;;;;5008014;28;21127;-84
2023/08/01 07:35:56;;;;;;;7.20;3.63;;;16.40;99.90;;;;;;5011063;28;20455;-80
2023/08/01 07:38:22;;;;;;;4.43;3.73;;;16.40;99.90;;;;;;5022436;28;20277;-80
2023/08/01 07:40:47;;;;;;;10.57;3.73;;;16.40;99.90;;;;;;5023844;28;21166;-80
2023/08/01 07:43:13;;;;;;;10.53;4.57;;;16.50;99.90;;;;;;5010050;28;20309;-82
2023/08/01 07:45:38;;;;;;;7.60;4.27;;;16.60;99.90;;;;;;5024229;28;20185;-80
2023/08/01 07:48:04;;;;;;;4.73;3.00;;;16.70;99.90;;;;;;5005557;28;20188;-81
2023/08/01 07:50:30;;;;;;;4.37;3.97;;;16.80;99.90;;;;;;5009940;28;20233;-82
2023/08/01 07:52:56;;;;;;;5.90;3.80;;;17.10;99.90;;;;;;5006941;28;22142;-83
2023/08/01 07:55:21;;;;;;;6.40;4.17;;;17.20;99.90;;;;;;5024935;28;20611;-78
2023/08/01 07:57:47;;;;;;;8.33;4.20;;;17.30;99.90;;;;;;5025055;28;20181;-81
2023/08/01 08:00:13;;;;;;;7.90;3.80;;;17.40;99.90;;;;;;5027119;28;20600;-85
2023/08/01 08:02:40;;;;;;;6.23;4.10;;;17.30;99.90;;;;;;5006197;28;20440;-81
2023/08/01 08:05:06;;;;;;;8.23;4.50;;;17.30;99.90;;;;;;5011244;28;20522;-82
2023/08/01 08:07:32;;;;;;;3.77;2.47;;;17.30;99.90;;;;;;5021598;28;20431;-81
2023/08/01 08:09:57;;;;;;;5.00;3.80;;;17.30;99.90;;;;;;5024153;28;20722;-79
2023/08/01 08:12:23;;;;;;;6.33;4.20;;;17.40;99.90;;;;;;5007982;28;20205;-81
2023/08/01 08:14:48;;;;;;;8.63;4.60;;;17.50;99.90;;;;;;5024473;28;20217;-83
2023/08/01 08:17:15;;;;;;;7.40;3.63;;;17.50;99.90;;;;;;5027088;28;20232;-82
2023/08/01 08:19:40;;;;;;;6.00;4.60;;;17.40;99.90;;;;;;5011074;28;20223;-80
2023/08/01 08:22:06;;;;;;;3.97;3.53;;;17.60;99.90;;;;;;5025662;28;20451;-82
2023/08/01 08:24:32;;;;;;;5.20;4.03;;;17.80;99.90;;;;;;5026664;28;21618;-80
2023/08/01 08:26:58;;;;;;;6.63;3.83;;;17.80;99.90;;;;;;5003156;28;20186;-80
2023/08/01 08:29:23;;;;;;;4.63;3.67;;;;;;;;;;4999175;28;20181;-83
2023/08/01 08:31:49;;;;;;;6.07;3.40;;;17.80;99.90;;;;;;5004699;28;21045;-82
2023/08/01 08:34:15;;;;;;;5.03;3.47;;;17.60;99.90;;;;;;5004753;28;20448;-83
2023/08/01 08:36:41;;;;;;;3.90;2.73;;;17.60;99.90;;;;;;5003671;28;20499;-82
2023/08/01 08:39:06;;;;;;;3.17;2.10;;;17.70;99.90;;;;;;5003142;28;20553;-84
2023/08/01 08:41:39;;;;;;;4.93;2.97;;;17.60;99.90;;;;;;4993306;28;20223;-81
2023/08/01 08:44:08;;;;;;;3.67;1.73;;;17.20;99.90;;;;;;5013193;28;20177;-84
2023/08/01 08:46:40;;;;;;;2.87;1.07;;;17.00;99.90;;;;;;5001104;28;20463;-82
2023/08/01 08:49:06;;;;;;;1.73;0.80;;;16.90;99.90;;;;;;5003037;28;20442;-82
2023/08/01 08:51:33;;;;;;;1.47;1.30;;;16.90;99.90;;;;;;5002498;28;20452;-82
2023/08/01 08:54:01;;;;;;;2.43;0.90;;;16.80;99.90;;;;;;5006260;28;20454;-81
2023/08/01 08:56:28;;;;;;;1.70;1.30;;;16.60;99.90;;;;;;5020671;28;20867;-81
2023/08/01 08:58:54;;;;;;;1.17;0.97;;;16.60;99.90;;;;;;5020657;28;21425;-80
2023/08/01 09:01:20;;;;;;;2.20;1.03;;;16.80;99.90;;;;;;5005346;28;20557;-81
2023/08/01 09:03:45;;;;;;;1.43;1.20;;;17.10;99.90;;;;;;5011864;28;20446;-81
2023/08/01 09:06:23;;;;;;;1.00;0.73;;;17.10;99.90;;;;;;5024261;28;20257;-81
2023/08/01 09:09:13;;;;;;;1.23;0.93;;;17.20;99.90;;;;;;5008556;28;20683;-81
2023/08/01 09:11:41;;;;;;;5.70;0.93;;;17.30;99.90;;;;;;4991720;28;20462;-78
2023/08/01 09:14:06;;;;;;;0.83;0.80;;;17.40;99.90;;;;;;5015650;28;21729;-79
2023/08/01 09:16:33;;;;;;;1.00;0.80;;;17.50;99.90;;;;;;5018941;28;20442;-82
2023/08/01 09:18:58;;;;;;;0.60;0.50;;;17.70;99.90;;;;;;5004707;28;20209;-82
2023/08/01 09:21:25;;;;;;;1.57;0.80;;;17.80;99.90;;;;;;5014422;28;20566;-83
2023/08/01 09:23:51;;;;;;;1.27;0.73;;;;;;;;;;5018540;28;20189;-82
2023/08/01 09:26:19;;;;;;;1.20;0.70;;;18.10;99.90;;;;;;5013251;28;20467;-82
2023/08/01 09:28:55;;;;;;;0.87;0.87;;;18.60;99.90;;;;;;5018027;28;20530;-81
2023/08/01 09:31:27;;;;;;;1.00;0.57;;;19.60;99.90;;;;;;5000076;28;20454;-79
2023/08/01 09:33:53;;;;;;;2.00;0.63;;;;;;;;;;5001050;28;20460;-81
2023/08/01 09:36:22;;;;;;;2.07;0.70;;;22.50;99.90;;;;;;5019896;28;20463;-81
2023/08/01 09:38:48;;;;;;;1.33;0.90;;;20.90;99.90;;;;;;5023912;28;20551;-81
2023/08/01 09:41:20;;;;;;;1.43;0.70;;;19.60;99.90;;;;;;5021758;28;20760;-79
2023/08/01 09:43:50;;;;;;;1.70;0.90;;;19.70;99.90;;;;;;5003768;28;20181;-82
2023/08/01 09:46:16;;;;;;;3.43;0.70;;;19.50;99.90;;;;;;5002204;28;22670;-79
2023/08/01 09:48:41;;;;;;;1.37;0.70;;;19.30;99.90;;;;;;5018429;28;20534;-80
2023/08/01 09:51:09;;;;;;;1.73;0.80;;;19.50;99.90;;;;;;5020208;28;20455;-81
2023/08/01 09:53:52;;;;;;;0.80;0.60;;;19.40;99.90;;;;;;5022593;28;20193;-78
2023/08/01 09:56:20;;;;;;;1.80;1.00;;;19.30;99.90;;;;;;5019466;28;20479;-81
2023/08/01 09:58:47;;;;;;;0.63;0.63;;;19.30;99.90;;;;;;5020104;28;20450;-82
2023/08/01 10:01:19;;;;;;;0.90;0.80;;;19.10;99.90;;;;;;5020907;28;20517;-81
2023/08/01 10:03:49;;;;;;;0.60;0.50;;;19.00;99.90;;;;;;5021619;28;20451;-82
2023/08/01 10:06:24;;;;;;;1.43;0.80;;;19.90;99.90;;;;;;5019549;28;20431;-84
2023/08/01 10:08:52;;;;;;;0.97;0.67;;;20.10;99.90;;;;;;5006822;28;20434;-79
2023/08/01 10:11:19;;;;;;;1.30;1.10;;;20.50;99.90;;;;;;5008997;28;20995;-79
2023/08/01 10:13:46;;;;;;;1.77;0.70;;;20.20;99.90;;;;;;5015866;28;21404;-79
2023/08/01 10:16:13;;;;;;;1.03;0.70;;;20.40;99.90;;;;;;5018851;28;20427;-77
2023/08/01 10:18:39;;;;;;;2.17;0.60;;;20.80;99.90;;;;;;5000154;28;20459;-81
2023/08/01 10:21:06;;;;;;;1.13;0.73;;;21.30;99.90;;;;;;5020371;28;20471;-78
2023/08/01 10:23:36;;;;;;;1.00;0.90;;;21.70;99.90;;;;;;5005169;28;20523;-81
2023/08/01 10:26:06;;;;;;;1.10;1.00;;;22.00;99.90;;;;;;5013394;28;20468;-78
2023/08/01 10:28:38;;;;;;;0.90;0.77;;;22.30;99.90;;;;;;5020183;28;20435;-82
2023/08/01 10:31:22;;;;;;;1.00;0.73;;;22.00;99.90;;;;;;5024687;28;20559;-78
2023/08/01 10:33:49;;;;;;;1.33;1.00;;;21.50;99.90;;;;;;5027380;28;20513;-80
2023/08/01 10:36:19;;;;;;;2.03;1.00;;;20.80;99.90;;;;;;5010488;28;20545;-80
2023/08/01 10:38:47;;;;;;;1.17;0.90;;;20.40;99.90;;;;;;5009564;28;20447;-80
2023/08/01 10:41:39;;;;;;;1.97;1.00;;;20.10;99.90;;;;;;5012230;28;22319;-81
2023/08/01 10:44:13;;;;;;;2.10;1.03;;;20.40;99.90;;;;;;5022322;28;20447;-79
2023/08/01 10:46:57;;;;;;;2.30;1.07;;;20.50;99.90;;;;;;5005748;28;20531;-81
2023/08/01 10:49:43;;;;;;;2.03;1.13;;;20.70;99.90;;;;;;5028551;28;21144;-79
2023/08/01 10:52:21;;;;;;;1.93;1.30;;;20.80;99.90;;;;;;5019755;28;20484;-81
2023/08/01 10:54:47;;;;;;;1.50;1.10;;;20.50;99.90;;;;;;5026279;28;20547;-81
2023/08/01 10:57:19;;;;;;;1.63;1.10;;;20.50;99.90;;;;;;5026333;28;20439;-79
2023/08/01 10:59:45;;;;;;;1.83;1.20;;;20.40;99.90;;;;;;5011944;28;20514;-81
2023/08/01 11:02:11;;;;;;;2.50;1.27;;;20.30;99.90;;;;;;5026088;28;20572;-82
2023/08/01 11:04:36;;;;;;;2.97;1.17;;;20.60;99.90;;;;;;5006153;28;20181;-83
2023/08/01 11:07:04;;;;;;;1.63;1.10;;;20.50;99.90;;;;;;5026313;28;20281;-81
2023/08/01 11:09:29;;;;;;;2.73;1.37;;;20.40;99.90;;;;;;5010817;28;21276;-80
2023/08/01 11:11:57;;;;;;;1.63;1.07;;;20.60;99.90;;;;;;5022129;28;20609;-82
2023/08/01 11:14:27;;;;;;;2.00;1.30;;;20.60;99.90;;;;;;5013881;28;20624;-78
2023/08/01 11:16:55;;;;;;;1.63;1.17;;;20.70;99.90;;;;;;5028161;28;20931;-79
2023/08/01 11:19:26;;;;;;;5.73;1.20;;;20.70;99.90;;;;;;5012561;28;20516;-80
2023/08/01 11:21:53;;;;;;;1.10;1.00;;;20.50;99.90;;;;;;5010416;28;20772;-79
2023/08/01 11:24:19;;;;;;;1.87;1.00;;;20.60;99.90;;;;;;5020336;28;20439;-81
2023/08/01 11:26:47;;;;;;;1.13;0.70;;;20.50;99.90;;;;;;5024213;28;20478;-82
2023/08/01 11:29:13;;;;;;;2.07;1.23;;;;;;;;;;5016168;28;20471;-78
2023/08/01 11:31:41;;;;;;;1.23;0.90;;;20.70;99.90;;;;;;5025511;28;23418;-81
2023/08/01 11:34:09;;;;;;;1.73;1.07;;;20.70;99.90;;;;;;5007710;28;20472;-82
2023/08/01 11:36:35;;;;;;;1.43;0.90;;;20.90;99.90;;;;;;5026627;28;20444;-82
2023/08/01 11:39:02;;;;;;;1.90;1.23;;;20.90;99.90;;;;;;5011164;28;20448;-81
2023/08/01 11:41:28;;;;;;;1.10;0.90;;;21.00;99.90;;;;;;5023864;28;20476;-79
2023/08/01 11:43:57;;;;;;;2.90;1.10;;;21.30;99.90;;;;;;5023047;28;21052;-81
2023/08/01 11:46:31;;;;;;;1.63;1.20;;;21.30;99.90;;;;;;5018451;28;20458;-79
2023/08/01 11:48:58;;;;;;;1.43;1.10;;;21.50;99.90;;;;;;5027862;28;20432;-78
2023/08/01 11:51:23;;;;;;;2.03;1.53;;;21.50;99.90;;;;;;5011247;28;20532;-83
2023/08/01 11:54:03;;;;;;;1.20;1.07;;;21.50;99.90;;;;;;5031470;28;20443;-78
2023/08/01 11:56:29;;;;;;;2.90;1.97;;;21.50;99.90;;;;;;5026456;28;20184;-78
2023/08/01 11:58:55;;;;;;;6.50;1.03;;;21.60;99.90;;;;;;5011094;28;20457;-79
2023/08/01 12:01:21;;;;;;;4.50;1.27;;;21.20;99.90;;;;;;5021439;28;20478;-78
2023/08/01 12:03:51;;;;;;;2.43;1.00;;;21.20;99.90;;;;;;5008363;28;21105;-81
2023/08/01 12:06:20;;;;;;;1.97;1.10;;;21.50;99.90;;;;;;5007686;28;20424;-78
2023/08/01 12:08:46;;;;;;;1.90;1.23;;;21.60;99.90;;;;;;5022920;28;20435;-79
2023/08/01 12:11:27;;;;;;;2.03;1.13;;;21.50;99.90;;;;;;5027965;28;20479;-81
2023/08/01 12:14:02;;;;;;;2.60;1.47;;;21.20;99.90;;;;;;5004813;28;20441;-83
2023/08/01 12:16:27;;;;;;;3.13;1.70;;;21.20;99.90;;;;;;5008317;28;20776;-78
2023/08/01 12:18:53;;;;;;;1.53;0.97;;;21.30;99.90;;;;;;5020138;28;21567;-79
2023/08/01 12:21:19;;;;;;;3.47;1.83;;;20.90;99.90;;;;;;5027926;28;20221;-81
2023/08/01 12:23:44;;;;;;;1.23;0.97;;;21.10;99.90;;;;;;5007731;28;20311;-80
2023/08/01 12:26:10;;;;;;;1.73;0.73;;;21.30;99.90;;;;;;5010698;28;20259;-79
2023/08/01 12:28:36;;;;;;;3.53;1.33;;;21.10;99.90;;;;;;5022280;28;20181;-78
2023/08/01 12:31:03;;;;;;;2.20;1.13;;;21.30;99.90;;;;;;5012772;28;20201;-79
2023/08/01 12:33:28;;;;;;;2.20;1.30;;;21.40;99.90;;;;;;5022919;28;20449;-79
2023/08/01 12:35:54;;;;;;;2.40;1.50;;;21.90;99.90;;;;;;5005180;28;21433;-79
2023/08/01 12:38:19;;;;;;;1.63;1.30;;;21.90;99.90;;;;;;5026435;28;20194;-82
2023/08/01 12:40:46;;;;;;;2.33;1.30;;;21.50;99.90;;;;;;5011418;28;20310;-81
2023/08/01 12:43:12;;;;;;;3.33;1.40;;;21.40;99.90;;;;;;5023372;28;20178;-81
2023/08/01 12:45:38;;;;;;;1.83;1.17;;;21.70;99.90;;;;;;5021840;28;20436;-79
2023/08/01 12:48:03;;;;;;;4.60;1.20;;;22.00;99.90;;;;;;5019848;28;20624;-81